createdAt,value
2023-03-15T00:02:23.372Z,98795.13
2023-03-15T00:05:25.461Z,98803.97
2023-03-15T00:08:28.135Z,98813.81
2023-03-15T00:11:31.240Z,98813.09
2023-03-15T00:14:33.216Z,98821.97
2023-03-15T00:17:35.365Z,98817.41
2023-03-15T00:20:38.673Z,98815.25
2023-03-15T00:23:40.762Z,98819.41
2023-03-15T00:26:42.786Z,98807.44
2023-03-15T00:29:45.143Z,98806.84
2023-03-15T00:32:47.276Z,98807.16
2023-03-15T00:35:49.334Z,98805.00
2023-03-15T00:38:53.617Z,98807.03
2023-03-15T00:41:57.157Z,98804.00
2023-03-15T00:44:59.684Z,98814.56
2023-03-15T00:48:01.728Z,98816.81
2023-03-15T00:51:08.114Z,98803.66
2023-03-15T00:54:13.927Z,98808.41
2023-03-15T00:57:15.991Z,98812.97
2023-03-15T01:00:24.889Z,98818.72
2023-03-15T01:03:28.654Z,98830.84
2023-03-15T01:06:30.905Z,98814.19
2023-03-15T01:09:32.965Z,98819.81
2023-03-15T01:12:35.870Z,98813.81
2023-03-15T01:15:37.886Z,98813.81
2023-03-15T01:18:41.414Z,98812.47
2023-03-15T01:21:44.344Z,98811.72
2023-03-15T01:24:46.695Z,98804.28
2023-03-15T01:27:48.713Z,98812.06
2023-03-15T01:30:53.405Z,98819.22
2023-03-15T01:33:56.153Z,98819.56
2023-03-15T01:36:58.337Z,98818.13
2023-03-15T01:40:00.666Z,98811.91
2023-03-15T01:43:25.399Z,98799.47
2023-03-15T01:46:35.522Z,98811.44
2023-03-15T01:49:37.800Z,98804.56
2023-03-15T01:52:43.083Z,98795.91
2023-03-15T01:55:45.289Z,98803.31
2023-03-15T01:58:48.713Z,98803.75
2023-03-15T02:01:54.655Z,98802.09
2023-03-15T02:05:09.984Z,98810.94
2023-03-15T02:08:15.546Z,98813.13
2023-03-15T02:11:24.476Z,98809.03
2023-03-15T02:14:28.220Z,98820.75
2023-03-15T02:17:39.634Z,98824.97
2023-03-15T02:21:10.856Z,98825.81
2023-03-15T02:24:30.105Z,98837.28
2023-03-15T03:39:04.678Z,98876.41
2023-03-15T03:42:07.265Z,98876.41
2023-03-15T03:45:09.784Z,98889.19
2023-03-15T03:48:12.047Z,98890.22
2023-03-15T03:51:14.291Z,98885.19
2023-03-15T03:54:17.651Z,98893.22
2023-03-15T03:57:19.822Z,98895.22
2023-03-15T04:00:23.788Z,98895.31
2023-03-15T04:03:29.340Z,98895.44
2023-03-15T04:06:31.592Z,98907.56
2023-03-15T04:09:37.671Z,98907.78
2023-03-15T04:12:39.894Z,98919.66
2023-03-15T04:15:42.013Z,98923.16
2023-03-15T04:18:44.035Z,98916.31
2023-03-15T04:21:49.221Z,98909.25
2023-03-15T04:24:51.294Z,98925.91
2023-03-15T04:28:00.140Z,98928.03
2023-03-15T04:31:02.399Z,98926.63
2023-03-15T04:34:05.917Z,98927.56
2023-03-15T04:37:08.052Z,98936.75
2023-03-15T04:40:11.824Z,98927.50
2023-03-15T04:43:14.633Z,98929.38
2023-03-15T04:46:16.633Z,98920.78
2023-03-15T04:49:18.721Z,98932.66
2023-03-15T04:52:20.734Z,98931.00
2023-03-15T04:55:23.175Z,98944.78
2023-03-15T04:58:25.245Z,98956.69
2023-03-15T05:01:32.169Z,98956.28
2023-03-15T05:04:34.249Z,98972.34
2023-03-15T05:07:37.262Z,98978.91
2023-03-15T05:10:39.416Z,98980.22
2023-03-15T05:13:41.409Z,98992.94
2023-03-15T05:16:43.480Z,98987.19
2023-03-15T05:19:46.319Z,98999.78
2023-03-15T05:22:49.232Z,99000.09
2023-03-15T05:25:55.983Z,99007.34
2023-03-15T05:28:58.157Z,99013.84
2023-03-15T05:32:00.244Z,99010.37
2023-03-15T05:35:02.626Z,99015.91
2023-03-15T05:38:04.907Z,99013.59
2023-03-15T05:41:09.524Z,99009.59
2023-03-15T05:44:11.754Z,99015.78
2023-03-15T05:47:13.822Z,99012.41
2023-03-15T05:50:17.392Z,99017.97
2023-03-15T05:53:19.863Z,99024.25
2023-03-15T05:56:22.004Z,99019.72
2023-03-15T05:59:24.135Z,99020.16
2023-03-15T06:02:26.189Z,99035.25
2023-03-15T06:05:28.266Z,99052.16
2023-03-15T06:08:30.375Z,99058.44
2023-03-15T06:11:32.439Z,99061.94
2023-03-15T06:14:34.658Z,99067.91
2023-03-15T06:17:36.734Z,99081.06
2023-03-15T06:20:42.580Z,99081.16
2023-03-15T06:23:44.934Z,99101.87
2023-03-15T06:26:47.012Z,99112.69
2023-03-15T06:29:52.364Z,99130.31
2023-03-15T06:32:55.281Z,99131.34
2023-03-15T06:35:57.383Z,99134.94
2023-03-15T06:38:59.534Z,99148.06
2023-03-15T06:42:02.751Z,99158.47
2023-03-15T06:45:06.271Z,99167.00
2023-03-15T06:48:08.350Z,99165.72
2023-03-15T06:51:12.331Z,99166.06
2023-03-15T06:54:14.487Z,99186.59
2023-03-15T06:57:16.547Z,99181.91
2023-03-15T07:00:19.806Z,99185.97
2023-03-15T07:03:23.814Z,99185.84
2023-03-15T07:06:27.728Z,99189.78
2023-03-15T07:09:30.369Z,99204.34
2023-03-15T07:12:32.472Z,99203.94
2023-03-15T07:15:37.245Z,99205.59
2023-03-15T07:18:39.465Z,99212.94
2023-03-15T07:21:41.687Z,99223.03
2023-03-15T07:24:44.371Z,99214.31
2023-03-15T07:27:46.442Z,99227.53
2023-03-15T07:30:56.888Z,99234.13
2023-03-15T07:33:59.602Z,99230.56
2023-03-15T07:37:01.906Z,99226.50
2023-03-15T07:40:06.686Z,99217.94
2023-03-15T07:43:09.619Z,99220.56
2023-03-15T07:46:12.049Z,99226.91
2023-03-15T07:49:14.136Z,99234.34
2023-03-15T07:52:16.292Z,99231.87
2023-03-15T07:55:18.989Z,99241.69
2023-03-15T07:58:21.069Z,99225.22
2023-03-15T08:01:23.282Z,99242.06
2023-03-15T08:04:25.552Z,99238.69
2023-03-15T08:07:27.673Z,99236.91
2023-03-15T08:10:30.312Z,99237.69
2023-03-15T08:13:32.724Z,99232.34
2023-03-15T08:16:34.801Z,99239.37
2023-03-15T08:19:37.008Z,99250.81
2023-03-15T08:22:39.380Z,99243.44
2023-03-15T08:25:41.820Z,99254.44
2023-03-15T08:28:44.415Z,99247.47
2023-03-15T08:31:46.685Z,99241.88
2023-03-15T08:34:48.750Z,99253.44
2023-03-15T08:37:52.574Z,99256.78
2023-03-15T08:40:57.333Z,99258.47
2023-03-15T08:43:59.631Z,99255.34
2023-03-15T08:47:02.277Z,99259.03
2023-03-15T08:50:07.198Z,99272.53
2023-03-15T08:53:11.208Z,99276.59
2023-03-15T08:56:13.498Z,99268.91
2023-03-15T08:59:28.986Z,99276.06
2023-03-15T09:02:33.579Z,99272.19
2023-03-15T09:05:36.800Z,99274.34
2023-03-15T09:08:38.891Z,99282.13
2023-03-15T09:11:40.977Z,99279.06
2023-03-15T09:14:44.106Z,99287.25
2023-03-15T09:17:46.304Z,99301.94
2023-03-15T09:20:48.597Z,99311.94
2023-03-15T09:23:51.188Z,99283.66
2023-03-15T09:26:53.202Z,99300.44
2023-03-15T09:29:55.385Z,99304.53
2023-03-15T09:32:57.595Z,99322.31
2023-03-15T09:36:00.348Z,99319.28
2023-03-15T09:39:02.906Z,99328.59
2023-03-15T09:42:16.598Z,99347.31
2023-03-15T09:45:27.323Z,99354.22
2023-03-15T09:48:50.920Z,99357.69
2023-03-15T09:52:07.239Z,99368.53
2023-03-15T09:55:12.020Z,99367.19
2023-03-15T09:58:21.981Z,99372.44
2023-03-15T10:01:37.855Z,99369.41
2023-03-15T10:04:43.625Z,99366.19
2023-03-15T10:07:46.399Z,99374.28
2023-03-15T10:11:21.932Z,99369.69
2023-03-15T10:14:39.441Z,99385.94
2023-03-15T10:17:58.001Z,99386.03
2023-03-15T10:21:16.361Z,99387.34
2023-03-15T10:24:27.894Z,99387.09
2023-03-15T10:27:47.769Z,99384.66
2023-03-15T10:30:53.939Z,99386.06
2023-03-15T10:33:57.152Z,99373.34
2023-03-15T10:36:59.185Z,99396.78
2023-03-15T10:40:01.364Z,99396.12
2023-03-15T10:43:13.983Z,99388.97
2023-03-15T10:46:23.528Z,99408.00
2023-03-15T10:49:36.963Z,99402.75
2023-03-15T10:52:40.847Z,99404.56
2023-03-15T10:55:45.137Z,99389.44
2023-03-15T10:59:05.363Z,99380.53
2023-03-15T11:02:16.841Z,99392.53
2023-03-15T11:05:19.888Z,99387.56
2023-03-15T11:08:44.336Z,99377.13
2023-03-15T11:12:03.042Z,99393.19
2023-03-15T11:15:14.964Z,99386.34
2023-03-15T11:18:25.554Z,99386.34
2023-03-15T11:21:35.803Z,99398.53
2023-03-15T11:24:38.028Z,99389.63
2023-03-15T11:27:41.756Z,99414.25
2023-03-15T11:30:47.909Z,99405.31
2023-03-15T11:34:47.684Z,99405.13
2023-03-15T11:38:14.687Z,99403.69
2023-03-15T11:41:42.864Z,99408.09
2023-03-15T11:44:55.177Z,99400.22
2023-03-15T11:48:04.347Z,99410.16
2023-03-15T11:51:08.444Z,99397.19
2023-03-15T11:54:15.876Z,99408.50
2023-03-15T11:57:30.696Z,99414.59
2023-03-15T12:00:35.167Z,99413.94
2023-03-15T12:03:46.634Z,99411.72
2023-03-15T12:06:48.894Z,99410.78
2023-03-15T12:09:57.905Z,99416.25
2023-03-15T12:13:08.421Z,99395.31
2023-03-15T12:16:12.358Z,99404.75
2023-03-15T12:19:16.423Z,99420.72
2023-03-15T12:22:19.174Z,99426.22
2023-03-15T12:25:25.519Z,99414.91
2023-03-15T12:28:36.498Z,99408.00
2023-03-15T12:32:04.203Z,99412.19
2023-03-15T12:35:16.003Z,99405.59
2023-03-15T12:38:22.811Z,99411.03
2023-03-15T12:41:46.828Z,99404.53
2023-03-15T12:44:48.939Z,99405.66
2023-03-15T12:47:51.308Z,99399.69
2023-03-15T12:51:01.588Z,99400.91
2023-03-15T12:54:04.681Z,99404.16
2023-03-15T12:57:10.316Z,99407.88
2023-03-15T13:00:15.817Z,99406.66
2023-03-15T13:03:22.273Z,99411.59
2023-03-15T13:06:27.181Z,99430.94
2023-03-15T13:09:52.140Z,99434.97
2023-03-15T13:13:22.137Z,99430.09
2023-03-15T13:16:28.006Z,99440.16
2023-03-15T13:19:43.031Z,99450.91
2023-03-15T13:23:10.001Z,99450.66
2023-03-15T13:26:57.221Z,99448.97
2023-03-15T13:29:59.480Z,99455.69
2023-03-15T13:33:05.488Z,99454.88
2023-03-15T13:36:20.649Z,99475.53
2023-03-15T13:39:25.934Z,99454.56
2023-03-15T13:42:28.568Z,99455.53
2023-03-15T13:45:31.414Z,99459.47
2023-03-15T13:48:39.965Z,99453.53
2023-03-15T13:51:43.618Z,99451.22
2023-03-15T13:54:45.956Z,99467.03
2023-03-15T13:57:53.958Z,99468.03
2023-03-15T14:01:00.506Z,99461.16
2023-03-15T14:04:08.119Z,99474.63
2023-03-15T14:07:34.115Z,99479.50
2023-03-15T14:10:38.923Z,99488.16
2023-03-15T14:13:59.900Z,99489.41
2023-03-15T14:17:08.880Z,99487.81
2023-03-15T14:20:17.181Z,99492.69
2023-03-15T14:23:25.147Z,99485.31
2023-03-15T14:26:29.771Z,99509.16
2023-03-15T14:29:35.814Z,99518.00
2023-03-15T14:32:39.387Z,99526.09
2023-03-15T14:35:44.260Z,99524.03
2023-03-15T14:38:52.306Z,99534.31
2023-03-15T14:41:55.033Z,99536.75
2023-03-15T14:44:57.622Z,99548.78
2023-03-15T14:48:04.526Z,99546.34
2023-03-15T14:51:07.192Z,99552.75
2023-03-15T14:54:10.897Z,99557.94
2023-03-15T14:57:13.151Z,99558.41
2023-03-15T15:00:18.750Z,99552.37
2023-03-15T15:04:01.802Z,99555.00
2023-03-15T15:07:04.117Z,99564.25
2023-03-15T15:10:06.982Z,99574.56
2023-03-15T15:13:26.053Z,99576.47
2023-03-15T15:16:28.175Z,99580.78
2023-03-15T15:19:30.835Z,99572.16
2023-03-15T15:22:33.328Z,99578.34
2023-03-15T15:25:35.735Z,99590.00
2023-03-15T15:28:38.126Z,99581.47
2023-03-15T15:31:41.842Z,99589.97
2023-03-15T15:34:44.730Z,99592.28
2023-03-15T15:37:49.058Z,99596.87
2023-03-15T15:40:52.185Z,99596.34
2023-03-15T15:43:54.530Z,99601.75
2023-03-15T15:46:57.585Z,99616.50
2023-03-15T15:49:59.784Z,99618.84
2023-03-15T15:53:05.040Z,99616.50
2023-03-15T15:56:12.779Z,99626.25
2023-03-15T15:59:16.185Z,99625.50
2023-03-15T16:02:22.452Z,99628.59
2023-03-15T16:05:29.437Z,99630.69
2023-03-15T16:08:37.357Z,99625.69
2023-03-15T16:11:40.194Z,99634.81
2023-03-15T16:14:43.420Z,99633.13
2023-03-15T16:17:46.452Z,99643.53
2023-03-15T16:20:52.101Z,99641.75
2023-03-15T16:24:04.010Z,99650.56
2023-03-15T16:27:08.812Z,99651.13
2023-03-15T16:30:31.611Z,99657.94
2023-03-15T16:33:36.334Z,99667.97
2023-03-15T16:36:44.062Z,99668.59
2023-03-15T16:39:49.375Z,99680.59
2023-03-15T16:42:53.001Z,99680.78
2023-03-15T16:45:55.811Z,99687.22
2023-03-15T16:48:58.826Z,99688.50
2023-03-15T16:52:03.179Z,99689.59
2023-03-15T16:55:06.922Z,99704.19
2023-03-15T16:58:18.926Z,99699.28
2023-03-15T17:01:22.015Z,99708.50
2023-03-15T17:04:25.196Z,99707.16
2023-03-15T17:07:38.974Z,99723.34
2023-03-15T17:10:45.408Z,99729.88
2023-03-15T17:13:48.540Z,99737.31
2023-03-15T17:16:51.291Z,99743.72
2023-03-15T17:19:54.974Z,99746.44
2023-03-15T17:23:05.988Z,99746.16
2023-03-15T17:26:17.529Z,99751.50
2023-03-15T17:29:20.741Z,99752.56
2023-03-15T17:32:24.185Z,99754.50
2023-03-15T17:35:37.028Z,99761.69
2023-03-15T17:38:43.143Z,99771.50
2023-03-15T17:41:49.693Z,99779.56
2023-03-15T17:44:52.816Z,99787.75
2023-03-15T17:47:58.268Z,99797.78
2023-03-15T17:51:02.585Z,99794.63
2023-03-15T17:54:15.046Z,99794.78
2023-03-15T17:57:17.928Z,99800.47
2023-03-15T18:00:21.857Z,99796.28
2023-03-15T18:03:29.402Z,99803.25
2023-03-15T18:06:32.557Z,99798.84
2023-03-15T18:09:37.782Z,99812.09
2023-03-15T18:12:44.482Z,99813.66
2023-03-15T18:15:50.365Z,99815.66
2023-03-15T18:18:53.909Z,99831.28
2023-03-15T18:21:57.081Z,99824.38
2023-03-15T18:25:00.104Z,99831.28
2023-03-15T18:28:04.172Z,99840.31
2023-03-15T18:31:15.537Z,99842.34
2023-03-15T18:34:22.458Z,99850.34
2023-03-15T18:37:25.786Z,99853.25
2023-03-15T18:40:31.925Z,99858.16
2023-03-15T18:43:34.971Z,99863.19
2023-03-15T18:46:37.966Z,99869.72
2023-03-15T18:49:40.690Z,99873.22
2023-03-15T18:52:44.090Z,99884.25
2023-03-15T18:55:47.219Z,99899.44
2023-03-15T18:58:51.501Z,99896.38
2023-03-15T19:01:56.550Z,99895.78
2023-03-15T19:04:59.904Z,99907.66
2023-03-15T19:08:03.679Z,99895.94
2023-03-15T19:11:09.606Z,99907.75
2023-03-15T19:14:12.922Z,99917.09
2023-03-15T19:17:16.029Z,99911.94
2023-03-15T19:20:23.872Z,99919.66
2023-03-15T19:23:28.666Z,99927.25
2023-03-15T19:26:33.540Z,99931.84
2023-03-15T19:29:36.881Z,99933.81
2023-03-15T19:32:44.620Z,99946.38
2023-03-15T19:35:47.279Z,99951.75
2023-03-15T19:38:51.842Z,99956.44
2023-03-15T19:41:55.447Z,99961.75
2023-03-15T19:44:59.187Z,99959.41
2023-03-15T19:48:02.593Z,99958.00
2023-03-15T19:51:06.676Z,99959.84
2023-03-15T19:54:11.431Z,99957.47
2023-03-15T19:57:15.261Z,99971.72
2023-03-15T20:00:20.271Z,99973.59
2023-03-15T20:03:26.578Z,99973.78
2023-03-15T20:06:31.359Z,99973.91
2023-03-15T20:09:39.576Z,99976.75
2023-03-15T20:12:43.527Z,99981.34
2023-03-15T20:15:47.337Z,99992.81
2023-03-15T20:18:57.061Z,99986.75
2023-03-15T20:22:01.975Z,99985.28
2023-03-15T20:25:05.725Z,99995.75
2023-03-15T20:28:10.115Z,99993.47
2023-03-15T20:31:17.590Z,100003.03
2023-03-15T20:34:21.305Z,99990.12
2023-03-15T20:37:29.292Z,100001.31
2023-03-15T20:40:33.799Z,100009.34
2023-03-15T20:43:37.598Z,100010.31
2023-03-15T20:46:41.823Z,100013.72
2023-03-15T20:49:44.664Z,100008.59
2023-03-15T20:52:48.878Z,100012.25
2023-03-15T20:55:52.860Z,100002.69
2023-03-15T20:58:56.400Z,100012.31
2023-03-15T21:01:59.092Z,100015.88
2023-03-15T21:05:02.119Z,100016.84
2023-03-15T21:08:06.228Z,100012.56
2023-03-15T21:11:09.647Z,100016.16
2023-03-15T21:14:12.668Z,100019.87
2023-03-15T21:17:15.246Z,100023.44
2023-03-15T21:20:19.259Z,100028.88
2023-03-15T21:23:22.745Z,100028.16
2023-03-15T21:26:25.835Z,100023.69
2023-03-15T21:29:29.242Z,100034.16
2023-03-15T21:32:32.138Z,100031.72
2023-03-15T21:35:34.959Z,100029.31
2023-03-15T21:38:38.208Z,100031.19
2023-03-15T21:41:42.310Z,100035.66
2023-03-15T21:44:44.957Z,100036.69
2023-03-15T21:47:47.349Z,100032.44
2023-03-15T21:50:49.909Z,100039.41
2023-03-15T21:53:52.475Z,100039.63
2023-03-15T21:56:54.977Z,100038.88
2023-03-15T21:59:57.199Z,100046.72
2023-03-15T22:02:59.642Z,100046.75
2023-03-15T22:06:02.342Z,100046.03
2023-03-15T22:09:04.584Z,100050.47
2023-03-15T22:12:07.475Z,100059.34
2023-03-15T22:15:10.192Z,100053.44
2023-03-15T22:18:12.240Z,100057.81
2023-03-15T22:21:14.419Z,100050.78
2023-03-15T22:24:16.460Z,100055.72
2023-03-15T22:27:18.596Z,100052.81
2023-03-15T22:30:20.867Z,100060.22
2023-03-15T22:33:23.166Z,100055.84
2023-03-15T22:36:25.368Z,100060.06
2023-03-15T22:39:27.932Z,100067.81
2023-03-15T22:42:30.497Z,100067.78
2023-03-15T22:45:32.466Z,100063.78
2023-03-15T22:48:35.032Z,100067.56
2023-03-15T22:51:40.463Z,100064.94
2023-03-15T22:54:43.696Z,100072.78
2023-03-15T22:57:45.741Z,100075.09
2023-03-15T23:00:48.259Z,100073.31
2023-03-15T23:03:51.192Z,100082.22
2023-03-15T23:06:53.494Z,100089.22
2023-03-15T23:09:56.090Z,100102.94
2023-03-15T23:12:58.471Z,100095.94
2023-03-15T23:16:04.010Z,100098.56
2023-03-15T23:19:06.528Z,100107.28
2023-03-15T23:22:08.657Z,100113.66
2023-03-15T23:25:12.688Z,100121.44
2023-03-15T23:28:17.448Z,100114.72
2023-03-15T23:31:19.908Z,100128.63
2023-03-15T23:34:23.594Z,100130.59
2023-03-15T23:37:25.781Z,100123.69
2023-03-15T23:40:28.630Z,100129.09
2023-03-15T23:43:33.002Z,100124.78
2023-03-15T23:46:36.411Z,100129.19
2023-03-15T23:49:38.524Z,100134.59
2023-03-15T23:52:41.486Z,100129.47
2023-03-15T23:55:43.512Z,100135.53
2023-03-15T23:58:46.105Z,100127.78
